Hallandale, Florida
Current Conditions -  °F | °C
As of 10:53 PM on Wednesday 22 Oct 2014 (Local Time) from KHWO Reporting Station
Clear Clear  
Wind Chill: 75°   Ceiling: Unl
Heat Index: 75°   Visibility: 10mi
Dew Point: 73°   Wind: 0mph
Humidity: 94%   Direction: NA
Pressure: 29.95"   Gusts: NA
Location:  25.98°N, 80.15°W
Report Text: KHWO 230253Z AUTO 00000KT 10SM CLR 24/23 A2995 RMK AO2 RAE29 SLP143 P0000 60003 T02390228 51002
Loading
Personal Weather Stations






























Interactive Weather Map
Tropical Storm Tracking
New forecast layout! Learn more

10-Day Weather Forecast

Advertisements
Track Severe Weather on mobile